Venado Tuerto, Argentina
Current Conditions -  °F | °C
As of 5:00 PM on Tuesday 21 Oct 2014 (Local Time) from SAAR Reporting Station
Clear Clear  
Wind Chill: 86°   Ceiling: Unl
Heat Index: 86°   Visibility: 6mi
Dew Point: 52°   Wind: 13mph
Humidity: 31%   Direction: 360°N
Pressure: 29.97"   Gusts: NA
Location:  33.75°S, 61.97°W
Report Text: SAAR 212000Z 36011KT CAVOK 30/11 Q1015
Loading
Personal Weather Stations






























Interactive Weather Map
Tropical Storm Tracking
New forecast layout! Learn more

10-Day Weather Forecast

Advertisements
Track Severe Weather on mobile